createdAt,value
2019-02-02T00:01:20.534Z,90.97
2019-02-02T00:03:46.291Z,91.06
2019-02-02T00:06:12.052Z,91.75
2019-02-02T00:08:37.828Z,92.06
2019-02-02T00:11:03.781Z,92.21
2019-02-02T00:13:29.548Z,92.27
2019-02-02T00:15:55.301Z,92.21
2019-02-02T00:18:21.065Z,92.30
2019-02-02T00:20:46.822Z,92.05
2019-02-02T00:23:12.612Z,92.34
2019-02-02T00:25:38.359Z,92.62
2019-02-02T00:28:04.234Z,92.57
2019-02-02T00:30:29.983Z,92.49
2019-02-02T00:32:55.754Z,92.38
2019-02-02T00:35:21.500Z,92.57
2019-02-02T00:37:47.281Z,92.51
2019-02-02T00:40:54.725Z,92.48
2019-02-02T00:43:20.469Z,92.60
2019-02-02T00:45:46.256Z,92.30
2019-02-02T00:48:12.099Z,92.76
2019-02-02T00:50:37.952Z,92.85
2019-02-02T00:53:03.864Z,92.69
2019-02-02T00:55:29.702Z,92.72
2019-02-02T00:57:55.465Z,93.07
2019-02-02T01:03:34.525Z,92.87
2019-02-02T01:06:00.309Z,93.05
2019-02-02T01:08:26.068Z,92.94
2019-02-02T01:10:51.827Z,93.57
2019-02-02T01:13:17.583Z,93.85
2019-02-02T01:15:43.340Z,93.73
2019-02-02T01:18:09.097Z,94.11
2019-02-02T01:20:34.868Z,93.65
2019-02-02T01:23:00.612Z,93.64
2019-02-02T01:25:26.444Z,93.66
2019-02-02T01:27:52.195Z,93.94
2019-02-02T01:30:59.645Z,93.95
2019-02-02T01:33:25.385Z,94.27
2019-02-02T01:35:51.157Z,93.88
2019-02-02T01:38:16.978Z,93.67
2019-02-02T01:40:42.742Z,94.21
2019-02-02T01:43:08.489Z,94.62
2019-02-02T01:45:34.265Z,94.44
2019-02-02T01:48:00.023Z,94.26
2019-02-02T01:51:07.462Z,94.64
2019-02-02T01:53:33.260Z,94.52
2019-02-02T01:55:59.032Z,94.79
2019-02-02T01:58:24.789Z,94.67
2019-02-02T02:00:50.561Z,94.50
2019-02-02T02:03:16.315Z,94.65
2019-02-02T02:05:44.574Z,94.92
2019-02-02T02:08:10.334Z,95.02
2019-02-02T02:10:36.092Z,94.92
2019-02-02T02:13:01.936Z,94.67
2019-02-02T02:15:27.702Z,94.71
2019-02-02T02:17:53.665Z,94.76
2019-02-02T02:20:19.520Z,94.78
2019-02-02T02:23:26.972Z,95.11
2019-02-02T02:25:52.732Z,95.01
2019-02-02T02:28:27.842Z,94.99
2019-02-02T02:30:47.433Z,94.79
2019-02-02T02:33:13.970Z,95.12
2019-02-02T02:35:39.722Z,95.18
2019-02-02T02:38:05.485Z,94.98
2019-02-02T02:40:31.241Z,95.52
2019-02-02T02:42:57.015Z,95.54
2019-02-02T02:45:22.757Z,95.46
2019-02-02T02:47:48.528Z,95.06
2019-02-02T02:50:34.152Z,95.01
2019-02-02T02:52:59.921Z,95.27
2019-02-02T02:55:25.691Z,95.33
2019-02-02T02:57:51.481Z,95.39
2019-02-02T03:03:44.304Z,95.52
2019-02-02T03:06:10.065Z,95.58
2019-02-02T03:08:35.829Z,95.38
2019-02-02T03:11:01.691Z,95.49
2019-02-02T03:13:27.447Z,95.48
2019-02-02T03:15:53.203Z,95.62
2019-02-02T03:18:18.981Z,95.49
2019-02-02T03:20:44.739Z,95.65
2019-02-02T03:23:10.504Z,95.74
2019-02-02T03:25:36.247Z,95.99
2019-02-02T03:28:02.011Z,95.84
2019-02-02T03:30:27.911Z,95.87
2019-02-02T03:32:53.729Z,95.85
2019-02-02T03:38:46.565Z,95.95
2019-02-02T03:41:12.303Z,96.12
2019-02-02T03:43:38.071Z,95.98
2019-02-02T03:46:03.843Z,95.95
2019-02-02T03:48:29.601Z,95.94
2019-02-02T03:50:55.370Z,95.72
2019-02-02T03:53:21.242Z,95.90
2019-02-02T03:55:47.100Z,96.04
2019-02-02T03:58:12.932Z,96.04
2019-02-02T04:00:38.717Z,96.00
2019-02-02T04:03:04.531Z,96.00
2019-02-02T04:05:30.252Z,95.97
2019-02-02T04:08:37.680Z,96.11
2019-02-02T04:11:03.433Z,96.17
2019-02-02T04:13:29.191Z,96.11
2019-02-02T04:15:54.959Z,96.06
2019-02-02T04:18:20.718Z,96.06
2019-02-02T04:20:46.473Z,96.09
2019-02-02T04:23:12.234Z,95.95
2019-02-02T04:25:37.989Z,95.94
2019-02-02T04:28:03.774Z,96.21
2019-02-02T04:30:29.518Z,95.96
2019-02-02T04:32:55.275Z,95.94
2019-02-02T04:36:02.719Z,96.15
2019-02-02T04:38:28.473Z,95.99
2019-02-02T04:40:54.313Z,96.08
2019-02-02T04:43:20.112Z,96.06
2019-02-02T04:45:45.858Z,95.96
2019-02-02T04:48:11.602Z,96.05
2019-02-02T04:50:37.371Z,96.00
2019-02-02T04:53:03.123Z,96.12
2019-02-02T04:55:28.901Z,96.10
2019-02-02T04:57:54.647Z,96.11
2019-02-02T05:03:34.449Z,96.05
2019-02-02T05:06:00.217Z,95.96
2019-02-02T05:08:25.970Z,95.97
2019-02-02T05:10:51.726Z,95.96
2019-02-02T05:13:17.494Z,95.82
2019-02-02T05:15:43.260Z,95.74
2019-02-02T05:18:09.008Z,95.73
2019-02-02T05:20:34.771Z,95.85
2019-02-02T05:23:00.517Z,95.83
2019-02-02T05:25:26.292Z,96.29
2019-02-02T05:27:52.046Z,96.16
2019-02-02T05:30:37.694Z,96.03
2019-02-02T05:33:03.452Z,96.22
2019-02-02T05:35:29.227Z,96.17
2019-02-02T05:37:55.075Z,96.46
2019-02-02T05:41:02.517Z,96.24
2019-02-02T05:43:28.269Z,96.35
2019-02-02T05:45:54.138Z,96.36
2019-02-02T05:48:19.889Z,96.27
2019-02-02T05:50:45.657Z,96.82
2019-02-02T05:53:11.410Z,96.80
2019-02-02T05:55:37.189Z,96.72
2019-02-02T05:58:02.938Z,96.89
2019-02-02T06:03:42.810Z,97.19
2019-02-02T06:06:28.479Z,97.21
2019-02-02T06:08:54.241Z,97.21
2019-02-02T06:11:20.012Z,97.05
2019-02-02T06:13:45.762Z,97.27
2019-02-02T06:16:11.538Z,96.89
2019-02-02T06:18:37.299Z,97.15
2019-02-02T06:21:03.097Z,96.96
2019-02-02T06:23:28.848Z,96.84
2019-02-02T06:25:54.602Z,97.10
2019-02-02T06:28:20.368Z,96.81
2019-02-02T06:30:46.121Z,96.98
2019-02-02T06:33:11.886Z,97.03
2019-02-02T06:35:37.633Z,97.25
2019-02-02T06:38:03.405Z,97.11
2019-02-02T06:40:29.166Z,97.12
2019-02-02T06:42:54.933Z,97.20
2019-02-02T06:45:40.564Z,97.28
2019-02-02T06:48:06.336Z,97.28
2019-02-02T06:50:32.086Z,97.25
2019-02-02T06:53:39.533Z,97.27
2019-02-02T06:56:05.294Z,97.11
2019-02-02T06:58:31.054Z,96.97
2019-02-02T07:00:56.810Z,96.89
2019-02-02T07:03:22.572Z,96.98
2019-02-02T07:05:48.337Z,97.13
2019-02-02T07:08:14.097Z,97.23
2019-02-02T07:10:39.840Z,97.26
2019-02-02T07:13:05.612Z,97.44
2019-02-02T07:15:31.399Z,97.25
2019-02-02T07:17:57.136Z,97.37
2019-02-02T07:20:22.992Z,97.35
2019-02-02T07:22:48.741Z,97.41
2019-02-02T07:25:14.604Z,97.40
2019-02-02T07:28:00.282Z,97.55
2019-02-02T07:30:29.178Z,97.55
2019-02-02T07:32:53.686Z,97.16
2019-02-02T07:36:01.161Z,97.18
2019-02-02T07:38:26.913Z,97.31
2019-02-02T07:40:52.669Z,97.39
2019-02-02T07:43:18.450Z,97.36
2019-02-02T07:45:44.202Z,97.29
2019-02-02T07:48:09.959Z,97.42
2019-02-02T07:50:35.720Z,97.31
2019-02-02T07:53:01.467Z,97.34
2019-02-02T07:55:27.263Z,97.37
2019-02-02T07:57:53.013Z,97.34
2019-02-02T08:00:41.338Z,97.25
2019-02-02T08:03:06.414Z,97.33
2019-02-02T08:05:32.185Z,97.29
2019-02-02T08:07:57.935Z,97.26
2019-02-02T08:10:23.702Z,97.31
2019-02-02T08:12:49.457Z,97.19
2019-02-02T08:15:35.102Z,97.16
2019-02-02T08:18:00.863Z,96.99
2019-02-02T08:20:26.626Z,97.11
2019-02-02T08:22:52.387Z,97.16
2019-02-02T08:25:18.155Z,97.22
2019-02-02T08:30:52.688Z,96.90
2019-02-02T08:33:18.844Z,96.91
2019-02-02T08:35:44.617Z,96.96
2019-02-02T08:38:10.373Z,96.88
2019-02-02T08:40:36.145Z,96.82
2019-02-02T08:43:01.889Z,96.75
2019-02-02T08:45:27.681Z,96.65
2019-02-02T08:47:53.403Z,96.75
2019-02-02T08:51:00.846Z,96.73
2019-02-02T08:53:26.610Z,96.66
2019-02-02T08:55:52.503Z,96.67
2019-02-02T08:58:18.230Z,96.68
2019-02-02T09:00:43.999Z,96.78
2019-02-02T09:03:09.759Z,96.66
2019-02-02T09:05:35.549Z,96.65
2019-02-02T09:08:01.279Z,96.50
2019-02-02T09:11:08.731Z,96.49
2019-02-02T09:13:36.758Z,96.43
2019-02-02T09:16:02.156Z,96.50
2019-02-02T09:18:27.905Z,96.38
2019-02-02T09:20:53.686Z,96.39
2019-02-02T09:23:19.436Z,96.31
2019-02-02T09:25:45.213Z,96.18
2019-02-02T09:28:10.961Z,96.28
2019-02-02T09:30:36.706Z,96.29
2019-02-02T09:33:44.157Z,96.03
2019-02-02T09:36:09.927Z,95.94
2019-02-02T09:38:35.687Z,96.02
2019-02-02T09:41:01.450Z,95.85
2019-02-02T09:43:27.198Z,95.94
2019-02-02T09:48:25.412Z,95.65
2019-02-02T09:50:51.213Z,95.65
2019-02-02T09:53:16.934Z,95.29
2019-02-02T09:55:42.695Z,95.27
2019-02-02T09:58:09.012Z,95.36
2019-02-02T10:00:36.126Z,95.14
2019-02-02T10:03:01.993Z,95.00
2019-02-02T10:06:09.432Z,94.79
2019-02-02T10:08:35.195Z,94.77
2019-02-02T10:11:01.069Z,94.47
2019-02-02T10:13:26.827Z,94.67
2019-02-02T10:15:52.587Z,94.15
2019-02-02T10:18:18.433Z,94.11
2019-02-02T10:20:44.209Z,94.15
2019-02-02T10:23:09.966Z,94.15
2019-02-02T10:25:35.721Z,93.95
2019-02-02T10:28:01.608Z,93.94
2019-02-02T10:33:54.421Z,93.66
2019-02-02T10:36:20.296Z,93.91
2019-02-02T10:38:46.034Z,93.62
2019-02-02T10:41:11.782Z,93.31
2019-02-02T10:43:37.541Z,93.40
2019-02-02T10:46:03.400Z,93.45
2019-02-02T10:48:29.171Z,93.20
2019-02-02T10:50:54.931Z,93.27
2019-02-02T10:53:20.697Z,93.12
2019-02-02T10:55:46.454Z,93.07
2019-02-02T10:58:12.282Z,92.92
2019-02-02T11:01:19.659Z,92.91
2019-02-02T11:03:45.428Z,92.91
2019-02-02T11:06:11.310Z,92.91
2019-02-02T11:08:37.202Z,92.96
2019-02-02T11:11:03.098Z,93.05
2019-02-02T11:13:29.063Z,92.99
2019-02-02T11:16:38.283Z,92.88
2019-02-02T11:19:04.181Z,92.51
2019-02-02T11:21:30.167Z,92.33
2019-02-02T11:23:57.587Z,92.44
2019-02-02T11:26:23.365Z,92.26
2019-02-02T11:28:49.100Z,92.28
2019-02-02T11:31:14.864Z,92.13
2019-02-02T11:33:40.626Z,91.63
2019-02-02T11:36:06.389Z,91.95
2019-02-02T11:38:32.319Z,91.62
2019-02-02T11:40:58.065Z,91.69
2019-02-02T11:43:23.890Z,91.61
2019-02-02T11:45:49.646Z,91.76
2019-02-02T11:48:15.418Z,91.46
2019-02-02T11:50:41.189Z,91.41
2019-02-02T11:53:07.043Z,91.51
2019-02-02T11:55:32.831Z,91.37
2019-02-02T11:57:58.602Z,91.30
2019-02-02T12:00:46.543Z,91.47
2019-02-02T12:03:13.123Z,91.32
2019-02-02T12:05:39.065Z,91.50
2019-02-02T12:08:06.949Z,91.38
2019-02-02T12:13:59.764Z,91.18
2019-02-02T12:16:27.172Z,91.22
2019-02-02T12:18:54.850Z,91.29
2019-02-02T12:21:20.644Z,91.23
2019-02-02T12:23:46.429Z,91.26
2019-02-02T12:26:12.204Z,90.97
2019-02-02T12:28:38.003Z,90.92
2019-02-02T12:36:45.581Z,90.51
2019-02-02T12:39:11.375Z,90.35
2019-02-02T12:41:37.270Z,90.10
2019-02-02T12:44:03.362Z,90.09
2019-02-02T12:46:29.149Z,90.15
2019-02-02T12:48:54.943Z,89.90
2019-02-02T12:51:20.733Z,89.75
2019-02-02T12:53:46.537Z,89.62
2019-02-02T12:56:12.306Z,89.63
2019-02-02T12:58:38.074Z,89.57
2019-02-02T13:01:03.828Z,89.72
2019-02-02T13:03:29.592Z,89.64
2019-02-02T13:05:55.359Z,89.71
2019-02-02T13:08:21.110Z,89.89
2019-02-02T13:10:46.913Z,89.96
2019-02-02T13:13:12.649Z,89.96
2019-02-02T13:15:38.408Z,90.06
2019-02-02T13:18:04.264Z,90.05
2019-02-02T13:20:30.096Z,90.13
2019-02-02T13:22:55.795Z,89.92
2019-02-02T13:26:05.389Z,89.70
2019-02-02T13:28:30.927Z,89.73
2019-02-02T13:30:56.689Z,89.74
2019-02-02T13:33:22.445Z,89.64
2019-02-02T13:35:48.304Z,89.53
2019-02-02T13:38:14.058Z,89.61
2019-02-02T13:40:39.931Z,89.51
2019-02-02T13:43:05.689Z,89.48
2019-02-02T13:45:31.462Z,89.66
2019-02-02T13:47:57.211Z,89.57
2019-02-02T13:50:23.037Z,89.68
2019-02-02T13:53:30.446Z,89.69
2019-02-02T13:55:56.234Z,89.73
2019-02-02T13:58:21.992Z,89.73
2019-02-02T14:00:47.761Z,89.96
2019-02-02T14:03:13.524Z,90.02
2019-02-02T14:06:20.976Z,90.40
2019-02-02T14:08:46.729Z,90.47
2019-02-02T14:11:12.494Z,90.88
2019-02-02T14:13:38.248Z,90.82
2019-02-02T14:16:04.019Z,90.82
2019-02-02T14:18:29.781Z,91.00
2019-02-02T14:20:55.550Z,90.99
2019-02-02T14:26:48.390Z,90.90
2019-02-02T14:29:14.161Z,90.80
2019-02-02T14:31:40.051Z,90.79
2019-02-02T14:34:05.805Z,90.71
2019-02-02T14:36:31.581Z,90.70
2019-02-02T14:38:57.337Z,90.42
2019-02-02T14:41:23.107Z,90.38
2019-02-02T14:43:48.866Z,90.43
2019-02-02T14:46:14.643Z,90.38
2019-02-02T14:48:40.551Z,90.38
2019-02-02T14:51:06.287Z,90.42
2019-02-02T14:53:32.035Z,90.35
2019-02-02T14:55:58.178Z,90.29
2019-02-02T14:58:25.581Z,90.32
2019-02-02T15:00:53.860Z,90.25
2019-02-02T15:03:25.785Z,90.02
2019-02-02T15:05:46.801Z,90.02
2019-02-02T15:08:12.549Z,90.10
2019-02-02T15:10:38.325Z,89.92
2019-02-02T15:13:04.062Z,90.01
2019-02-02T15:15:29.823Z,89.94
2019-02-02T15:17:55.620Z,89.78
2019-02-02T15:20:41.234Z,89.79
2019-02-02T15:23:06.993Z,89.79
2019-02-02T15:25:32.746Z,89.61
2019-02-02T15:27:58.528Z,89.63
2019-02-02T15:31:05.962Z,89.61
2019-02-02T15:33:38.025Z,89.62
2019-02-02T15:35:59.408Z,89.78
2019-02-02T15:38:25.159Z,89.77
2019-02-02T15:40:58.747Z,89.80
2019-02-02T15:43:18.625Z,90.09
2019-02-02T15:45:44.381Z,90.25
2019-02-02T15:48:10.156Z,90.29
2019-02-02T15:50:35.903Z,90.40
2019-02-02T15:53:01.803Z,90.61
2019-02-02T15:55:27.531Z,90.71
2019-02-02T15:57:53.294Z,90.81
2019-02-02T16:01:00.805Z,90.78
2019-02-02T16:03:26.577Z,90.70
2019-02-02T16:06:12.226Z,90.65
2019-02-02T16:08:37.996Z,90.65
2019-02-02T16:11:03.753Z,90.63
2019-02-02T16:16:43.677Z,90.60
2019-02-02T16:19:09.429Z,90.52
2019-02-02T16:21:35.198Z,90.51
2019-02-02T16:24:01.015Z,90.36
2019-02-02T16:26:26.765Z,90.47
2019-02-02T16:28:52.545Z,90.49
2019-02-02T16:31:18.299Z,90.65
2019-02-02T16:33:44.073Z,90.68
2019-02-02T16:36:09.824Z,90.67
2019-02-02T16:38:35.600Z,90.59
2019-02-02T16:41:01.477Z,90.67
2019-02-02T16:43:27.236Z,90.63
2019-02-02T16:45:52.980Z,90.71
2019-02-02T16:48:18.763Z,90.75
2019-02-02T16:50:44.499Z,90.93
2019-02-02T16:53:11.183Z,90.89
2019-02-02T16:55:36.952Z,90.96
2019-02-02T16:58:44.404Z,91.06
2019-02-02T17:01:10.154Z,91.04
2019-02-02T17:03:35.930Z,91.15
2019-02-02T17:06:01.682Z,91.00
2019-02-02T17:08:27.456Z,91.04
2019-02-02T17:10:53.218Z,91.01
2019-02-02T17:13:18.992Z,91.27
2019-02-02T17:15:44.841Z,91.09
2019-02-02T17:18:10.616Z,90.97
2019-02-02T17:24:03.439Z,90.81
2019-02-02T17:26:29.198Z,90.69
2019-02-02T17:28:54.962Z,90.42
2019-02-02T17:31:20.706Z,90.36
2019-02-02T17:33:46.470Z,90.13
2019-02-02T17:36:12.233Z,90.32
2019-02-02T17:38:38.011Z,90.12
2019-02-02T17:41:03.764Z,90.08
2019-02-02T17:43:29.545Z,89.98
2019-02-02T17:45:55.292Z,90.09
2019-02-02T17:48:21.067Z,89.91
2019-02-02T17:50:46.820Z,90.05
2019-02-02T17:53:12.598Z,89.89
2019-02-02T17:55:38.374Z,90.04
2019-02-02T17:58:04.147Z,90.00
2019-02-02T18:01:11.583Z,89.91
2019-02-02T18:03:37.348Z,89.85
2019-02-02T18:06:03.196Z,89.70
2019-02-02T18:08:28.965Z,89.61
2019-02-02T18:10:54.710Z,89.74
2019-02-02T18:13:20.480Z,89.65
2019-02-02T18:15:46.240Z,89.68
2019-02-02T18:18:12.103Z,89.58
2019-02-02T18:20:37.862Z,89.64
2019-02-02T18:23:03.622Z,89.64
2019-02-02T18:25:29.386Z,89.66
2019-02-02T18:27:55.239Z,89.81
2019-02-02T18:31:02.682Z,89.81
2019-02-02T18:33:28.446Z,89.92
2019-02-02T18:35:54.229Z,90.14
2019-02-02T18:38:19.955Z,90.33
2019-02-02T18:40:45.727Z,90.58
2019-02-02T18:43:11.477Z,90.66
2019-02-02T18:45:37.250Z,90.83
2019-02-02T18:48:22.895Z,90.96
2019-02-02T18:50:48.666Z,90.96
2019-02-02T18:53:14.433Z,91.37
2019-02-02T18:56:21.909Z,91.37
2019-02-02T18:58:47.680Z,91.61
2019-02-02T19:01:13.450Z,91.68
2019-02-02T19:03:39.221Z,91.82
2019-02-02T19:06:05.102Z,91.91
2019-02-02T19:08:30.835Z,91.95
2019-02-02T19:10:56.607Z,91.95
2019-02-02T19:13:22.537Z,91.97
2019-02-02T19:15:48.338Z,92.04
2019-02-02T19:18:14.090Z,91.95
2019-02-02T19:20:39.869Z,92.11
2019-02-02T19:23:05.627Z,92.10
2019-02-02T19:25:31.399Z,92.31
2019-02-02T19:27:57.145Z,92.55
2019-02-02T19:31:04.734Z,92.78
2019-02-02T19:33:30.564Z,92.87
2019-02-02T19:35:56.527Z,92.80
2019-02-02T19:38:22.279Z,93.02
2019-02-02T19:40:48.157Z,93.06
2019-02-02T19:43:13.981Z,93.37
2019-02-02T19:45:39.793Z,93.53
2019-02-02T19:48:05.574Z,93.82
2019-02-02T19:50:31.374Z,93.85
2019-02-02T19:52:57.129Z,93.85
2019-02-02T19:55:23.001Z,93.89
2019-02-02T19:58:03.369Z,93.86
2019-02-02T20:01:10.837Z,93.95
2019-02-02T20:03:36.589Z,93.91
2019-02-02T20:06:02.621Z,93.86
2019-02-02T20:08:28.378Z,93.62
2019-02-02T20:10:54.165Z,93.57
2019-02-02T20:13:19.920Z,93.33
2019-02-02T20:15:45.814Z,93.13
2019-02-02T20:18:11.696Z,92.86
2019-02-02T20:20:37.458Z,92.56
2019-02-02T20:23:03.662Z,92.60
2019-02-02T20:25:29.424Z,92.63
2019-02-02T20:27:55.175Z,92.58
2019-02-02T20:31:02.845Z,92.75
2019-02-02T20:33:28.582Z,92.69
2019-02-02T20:35:54.346Z,92.98
2019-02-02T20:38:20.106Z,93.25
2019-02-02T20:40:45.877Z,93.15
2019-02-02T20:43:12.436Z,93.33
2019-02-02T20:45:38.271Z,93.43
2019-02-02T20:48:04.192Z,93.62
2019-02-02T20:50:29.966Z,93.99
2019-02-02T20:52:55.742Z,94.13
2019-02-02T20:55:42.401Z,94.55
2019-02-02T20:58:08.165Z,94.56
2019-02-02T21:00:33.920Z,94.72
2019-02-02T21:03:41.570Z,95.05
2019-02-02T21:06:07.470Z,95.14
2019-02-02T21:08:33.409Z,95.42
2019-02-02T21:13:53.541Z,95.63
2019-02-02T21:16:19.303Z,95.71
2019-02-02T21:18:45.047Z,95.96
2019-02-02T21:21:10.821Z,95.98
2019-02-02T21:23:36.569Z,96.21
2019-02-02T21:26:02.569Z,96.32
2019-02-02T21:28:30.261Z,96.52
2019-02-02T21:30:56.438Z,96.53
2019-02-02T21:33:22.245Z,96.52
2019-02-02T21:35:48.885Z,96.64
2019-02-02T21:38:15.665Z,96.74
2019-02-02T21:40:41.432Z,96.74
2019-02-02T21:43:07.307Z,96.67
2019-02-02T21:45:34.965Z,96.67
2019-02-02T21:48:00.729Z,96.50
2019-02-02T21:50:26.495Z,96.36
2019-02-02T21:53:33.957Z,96.26
2019-02-02T21:55:59.718Z,95.98
2019-02-02T21:58:25.492Z,95.73
2019-02-02T22:00:51.242Z,95.55
2019-02-02T22:03:17.022Z,95.34
2019-02-02T22:05:42.780Z,95.22
2019-02-02T22:08:08.653Z,95.21
2019-02-02T22:10:36.308Z,94.99
2019-02-02T22:13:02.082Z,94.95
2019-02-02T22:16:09.501Z,94.83
2019-02-02T22:18:35.581Z,94.82
2019-02-02T22:21:01.335Z,94.91
2019-02-02T22:23:27.111Z,94.80
2019-02-02T22:25:52.855Z,94.73
2019-02-02T22:28:25.711Z,94.77
2019-02-02T22:30:51.922Z,94.75
2019-02-02T22:33:18.048Z,94.62
2019-02-02T22:35:44.103Z,94.60
2019-02-02T22:38:10.251Z,94.50
2019-02-02T22:40:36.258Z,94.48
2019-02-02T22:43:02.433Z,94.51
2019-02-02T22:45:28.647Z,94.47
2019-02-02T22:47:54.463Z,94.47
2019-02-02T22:53:34.084Z,94.38
2019-02-02T22:55:59.966Z,94.42
2019-02-02T22:58:27.976Z,94.31
2019-02-02T23:01:35.467Z,94.30
2019-02-02T23:04:43.057Z,94.13
2019-02-02T23:07:50.482Z,94.25
2019-02-02T23:11:15.907Z,94.35
2019-02-02T23:14:23.537Z,94.26
2019-02-02T23:17:31.143Z,94.28
2019-02-02T23:20:00.360Z,94.14
2019-02-02T23:22:25.349Z,94.17
2019-02-02T23:24:51.264Z,94.19
2019-02-02T23:27:19.194Z,94.23
2019-02-02T23:29:44.963Z,94.23
2019-02-02T23:32:10.813Z,94.23
2019-02-02T23:34:36.594Z,94.16
2019-02-02T23:37:04.250Z,94.09
2019-02-02T23:39:30.019Z,94.14
2019-02-02T23:41:55.784Z,93.98
2019-02-02T23:44:21.546Z,94.02
2019-02-02T23:46:47.325Z,93.93
2019-02-02T23:49:13.069Z,93.89
2019-02-02T23:51:38.849Z,93.90
2019-02-02T23:54:04.598Z,93.91
2019-02-02T23:56:30.386Z,93.93
2019-02-02T23:58:56.138Z,93.90
